createdAt,value
2023-06-08T00:05:56.684Z,14.1
2023-06-08T00:17:56.705Z,14.1
2023-06-08T00:29:56.678Z,14.6
2023-06-08T00:41:57.694Z,14.6
2023-06-08T00:53:56.566Z,14.5
2023-06-08T01:05:56.690Z,14.6
2023-06-08T01:17:56.564Z,14.7
2023-06-08T01:29:56.645Z,14.9
2023-06-08T01:41:56.620Z,14.7
2023-06-08T01:53:56.647Z,14.3
2023-06-08T02:05:56.674Z,14.2
2023-06-08T02:17:56.685Z,14.2
2023-06-08T02:29:56.560Z,14.1
2023-06-08T02:41:56.672Z,14.0
2023-06-08T02:53:56.673Z,14.4
2023-06-08T03:05:56.650Z,13.5
2023-06-08T03:17:56.656Z,13.1
2023-06-08T03:29:56.652Z,13.2
2023-06-08T03:41:56.593Z,13.5
2023-06-08T03:53:56.545Z,13.7
2023-06-08T04:05:56.556Z,13.8
2023-06-08T04:17:58.805Z,13.7
2023-06-08T04:29:56.555Z,14.0
2023-06-08T04:41:56.629Z,14.3
2023-06-08T04:53:56.672Z,14.6
2023-06-08T05:05:56.670Z,14.8
2023-06-08T05:17:56.565Z,15.5
2023-06-08T05:29:57.626Z,16.1
2023-06-08T05:41:56.669Z,16.6
2023-06-08T05:53:56.686Z,17.6
2023-06-08T06:05:57.854Z,17.9
2023-06-08T06:17:56.603Z,18.4
2023-06-08T06:29:56.668Z,19.0
2023-06-08T06:41:56.562Z,19.0
2023-06-08T06:53:56.670Z,19.6
2023-06-08T07:05:56.659Z,20.1
2023-06-08T07:17:56.724Z,19.9
2023-06-08T07:29:56.582Z,19.9
2023-06-08T07:41:56.586Z,20.2
2023-06-08T07:53:59.545Z,20.7
2023-06-08T08:05:56.578Z,21.0
2023-06-08T08:17:56.606Z,21.6
2023-06-08T08:29:56.562Z,21.5
2023-06-08T08:41:56.558Z,22.0
2023-06-08T08:53:56.563Z,22.5
2023-06-08T09:05:56.614Z,22.8
2023-06-08T09:17:56.597Z,22.9
2023-06-08T09:29:56.558Z,23.3
2023-06-08T09:42:00.565Z,23.5
2023-06-08T09:53:56.553Z,24.6
2023-06-08T10:05:56.584Z,24.3
2023-06-08T10:17:56.786Z,23.3
2023-06-08T10:29:56.717Z,22.9
2023-06-08T10:41:56.552Z,23.7
2023-06-08T10:53:56.735Z,24.8
2023-06-08T11:05:56.668Z,24.7
2023-06-08T11:17:56.621Z,24.4
2023-06-08T11:30:01.033Z,24.8
2023-06-08T11:41:56.561Z,25.2
2023-06-08T11:53:56.561Z,25.9
2023-06-08T12:05:56.557Z,25.8
2023-06-08T12:17:56.709Z,23.6
2023-06-08T12:29:56.555Z,24.5
2023-06-08T12:41:56.558Z,24.2
2023-06-08T12:53:56.666Z,23.7
2023-06-08T13:05:56.702Z,23.2
2023-06-08T13:18:02.958Z,24.1
2023-06-08T13:29:56.627Z,24.4
2023-06-08T13:41:56.559Z,24.3
2023-06-08T13:53:56.566Z,24.9
2023-06-08T14:05:56.584Z,25.4
2023-06-08T14:17:56.611Z,25.3
2023-06-08T14:29:56.573Z,25.4
2023-06-08T14:41:56.591Z,24.9
2023-06-08T14:53:56.574Z,25.5
2023-06-08T15:05:56.583Z,25.1
2023-06-08T15:17:56.749Z,26.0
2023-06-08T15:29:56.785Z,24.8
2023-06-08T15:41:56.549Z,23.6
2023-06-08T15:53:56.658Z,22.3
2023-06-08T16:05:56.571Z,22.1
2023-06-08T16:17:56.648Z,21.3
2023-06-08T16:29:56.603Z,21.3
2023-06-08T16:41:56.611Z,21.1
2023-06-08T16:53:56.571Z,20.5
2023-06-08T17:05:56.657Z,20.4
2023-06-08T17:18:03.079Z,20.0
2023-06-08T17:29:59.164Z,19.9
2023-06-08T17:41:56.620Z,19.9
2023-06-08T17:53:56.615Z,19.8
2023-06-08T18:06:04.803Z,19.7
2023-06-08T18:17:56.644Z,19.2
2023-06-08T18:29:56.639Z,19.3
2023-06-08T18:41:56.560Z,19.2
2023-06-08T18:53:56.560Z,18.7
2023-06-08T19:05:58.100Z,18.3
2023-06-08T19:17:56.635Z,17.8
2023-06-08T19:29:56.678Z,17.9
2023-06-08T19:41:56.558Z,18.0
2023-06-08T19:53:56.630Z,17.5
2023-06-08T20:05:56.681Z,17.4
2023-06-08T20:17:56.793Z,16.6
2023-06-08T20:29:56.663Z,17.6
2023-06-08T20:41:56.618Z,16.7
2023-06-08T20:53:56.658Z,16.3
2023-06-08T21:05:56.801Z,16.3
2023-06-08T21:17:56.677Z,16.1
2023-06-08T21:29:56.586Z,15.9
2023-06-08T21:41:56.581Z,16.2
2023-06-08T21:53:56.577Z,16.1
2023-06-08T22:05:56.574Z,15.9
2023-06-08T22:17:56.602Z,16.0
2023-06-08T22:29:56.563Z,16.1
2023-06-08T22:41:56.659Z,16.1
2023-06-08T22:53:56.652Z,15.9
2023-06-08T23:05:56.570Z,15.4
2023-06-08T23:17:56.687Z,14.7
2023-06-08T23:29:56.673Z,14.4
2023-06-08T23:41:56.599Z,14.4
2023-06-08T23:53:56.554Z,14.4
